Time;durP1;ratioP1;P1;durP2;ratioP2;P2;SDS_P1;SDS_P2;PMS_P1;PMS_P2;Temp;Humidity;BMP_temperature;BMP_pressure;BME280_temperature;BME280_humidity;BME280_pressure;Samples;Min_cycle;Max_cycle;Signal;HPM_P1;HPM_P2
2022/07/04 00:02:24;;;;;;;1.92;0.68;;;19.70;73.60;;;;;;5100687;27;46619;-69
2022/07/04 00:04:51;;;;;;;3.42;0.90;;;19.70;73.90;;;;;;5103992;27;45425;-69
2022/07/04 00:07:18;;;;;;;2.35;0.50;;;19.70;73.50;;;;;;5102331;27;45444;-69
2022/07/04 00:09:44;;;;;;;3.42;0.80;;;19.70;73.50;;;;;;5097092;27;45449;-69
2022/07/04 00:12:11;;;;;;;2.58;0.70;;;19.70;73.60;;;;;;5101067;27;45337;-69
2022/07/04 00:14:38;;;;;;;1.63;0.85;;;19.70;73.70;;;;;;5099070;27;45294;-69
2022/07/04 00:17:05;;;;;;;3.35;0.60;;;19.70;73.60;;;;;;5103372;27;45299;-68
2022/07/04 00:19:33;;;;;;;2.15;0.70;;;19.70;73.80;;;;;;5102554;27;45260;-69
2022/07/04 00:22:00;;;;;;;1.63;0.50;;;19.70;73.90;;;;;;5102539;27;45429;-69
2022/07/04 00:24:27;;;;;;;1.63;0.68;;;19.70;73.80;;;;;;5105017;27;45733;-69
2022/07/04 00:26:54;;;;;;;3.92;0.98;;;19.70;74.00;;;;;;5099989;27;45284;-68
2022/07/04 00:29:21;;;;;;;2.88;0.65;;;19.70;73.80;;;;;;5103695;27;45328;-69
2022/07/04 00:31:47;;;;;;;3.20;1.13;;;19.70;73.90;;;;;;5103511;27;48017;-66
2022/07/04 00:34:14;;;;;;;2.95;0.75;;;19.70;74.20;;;;;;5103244;27;45369;-69
2022/07/04 00:36:42;;;;;;;2.33;0.70;;;19.70;74.30;;;;;;5104031;27;45464;-68
2022/07/04 00:39:09;;;;;;;1.85;0.40;;;19.70;74.50;;;;;;5102373;27;45537;-69
2022/07/04 00:41:36;;;;;;;2.88;0.77;;;19.70;74.60;;;;;;5103782;27;46284;-69
2022/07/04 00:44:05;;;;;;;2.05;0.70;;;19.70;74.50;;;;;;5103171;27;45395;-69
2022/07/04 00:46:32;;;;;;;2.15;0.70;;;19.60;74.70;;;;;;5101018;27;45432;-68
2022/07/04 00:48:59;;;;;;;2.45;0.95;;;19.60;74.70;;;;;;5103404;27;45321;-69
2022/07/04 00:51:25;;;;;;;2.03;0.73;;;19.50;75.10;;;;;;5103049;27;47536;-69
2022/07/04 00:53:55;;;;;;;2.88;0.73;;;19.50;75.20;;;;;;5101250;27;45413;-69
2022/07/04 00:56:22;;;;;;;2.17;0.93;;;19.50;75.90;;;;;;5101749;27;45518;-69
2022/07/04 00:58:50;;;;;;;2.08;0.73;;;19.50;74.90;;;;;;5103613;27;45276;-69
2022/07/04 01:01:16;;;;;;;4.13;0.80;;;19.50;75.20;;;;;;5102287;27;47112;-69
2022/07/04 01:03:43;;;;;;;1.38;0.82;;;19.50;75.20;;;;;;5102036;27;45425;-69
2022/07/04 01:06:10;;;;;;;1.20;0.60;;;19.50;75.00;;;;;;5098601;27;45306;-69
2022/07/04 01:08:38;;;;;;;1.60;0.70;;;19.50;74.80;;;;;;5102915;27;45462;-69
2022/07/04 01:11:06;;;;;;;2.25;0.70;;;19.40;74.90;;;;;;5100389;27;48332;-69
2022/07/04 01:13:34;;;;;;;3.78;0.80;;;19.40;74.80;;;;;;5102004;27;45423;-69
2022/07/04 01:16:01;;;;;;;1.42;0.60;;;19.40;75.40;;;;;;5103302;27;45623;-69
2022/07/04 01:18:28;;;;;;;2.28;0.70;;;19.40;75.20;;;;;;5095355;27;45378;-69
2022/07/04 01:20:56;;;;;;;1.88;0.52;;;19.50;75.20;;;;;;5100461;27;47303;-69
2022/07/04 01:23:23;;;;;;;1.10;0.52;;;19.40;75.40;;;;;;5103465;27;45437;-69
2022/07/04 01:25:50;;;;;;;4.50;0.80;;;19.40;75.80;;;;;;5101849;27;45297;-69
2022/07/04 01:28:20;;;;;;;3.13;0.60;;;19.40;75.50;;;;;;5096475;27;45492;-69
2022/07/04 01:30:46;;;;;;;2.30;0.70;;;19.40;75.60;;;;;;5099381;27;45480;-69
2022/07/04 01:33:13;;;;;;;1.38;0.63;;;19.30;75.20;;;;;;5100251;27;45322;-69
2022/07/04 01:35:40;;;;;;;1.70;0.60;;;19.40;76.00;;;;;;5102143;27;45432;-68
2022/07/04 01:38:08;;;;;;;1.23;0.73;;;19.30;75.50;;;;;;5103435;27;45349;-69
2022/07/04 01:40:35;;;;;;;3.42;0.68;;;19.30;76.00;;;;;;5102875;27;46607;-68
2022/07/04 01:43:02;;;;;;;2.10;0.88;;;19.20;76.00;;;;;;5103431;27;45339;-69
2022/07/04 01:45:29;;;;;;;2.47;0.80;;;19.20;76.20;;;;;;5102375;27;45504;-69
2022/07/04 01:47:56;;;;;;;1.00;0.82;;;19.20;76.00;;;;;;5100185;27;45517;-69
2022/07/04 01:50:23;;;;;;;0.77;0.52;;;19.20;76.60;;;;;;5101525;27;47547;-69
2022/07/04 01:52:50;;;;;;;3.30;0.70;;;19.20;76.60;;;;;;5101441;27;45441;-69
2022/07/04 01:55:18;;;;;;;1.75;0.63;;;19.10;76.50;;;;;;5101039;27;45315;-69
2022/07/04 01:57:45;;;;;;;1.85;0.70;;;19.10;76.20;;;;;;5102356;27;45426;-69
2022/07/04 02:02:57;;;;;;;3.67;0.68;;;19.10;76.70;;;;;;5099795;27;45386;-69
2022/07/04 02:05:24;;;;;;;1.90;0.75;;;19.10;76.80;;;;;;5096557;27;45343;-69
2022/07/04 02:07:51;;;;;;;3.03;0.80;;;19.10;77.40;;;;;;5101543;27;45576;-69
2022/07/04 02:10:19;;;;;;;3.28;0.90;;;19.10;77.10;;;;;;5101211;27;46251;-69
2022/07/04 02:13:03;;;;;;;3.03;0.90;;;19.10;77.40;;;;;;5102491;27;45370;-69
2022/07/04 02:15:31;;;;;;;4.68;1.17;;;19.10;77.40;;;;;;5100057;27;45412;-68
2022/07/04 02:17:59;;;;;;;4.13;1.00;;;19.10;77.40;;;;;;5099101;27;45386;-69
2022/07/04 02:20:26;;;;;;;2.65;0.90;;;19.10;77.50;;;;;;5100980;27;45456;-69
2022/07/04 02:22:53;;;;;;;1.33;0.70;;;19.10;76.60;;;;;;5101255;27;45812;-69
2022/07/04 02:25:21;;;;;;;1.27;0.70;;;19.10;77.30;;;;;;5099190;27;45322;-68
2022/07/04 02:27:48;;;;;;;3.35;0.65;;;19.00;77.30;;;;;;5098701;27;45339;-69
2022/07/04 02:30:15;;;;;;;1.80;0.88;;;19.00;77.30;;;;;;5101827;27;46293;-69
2022/07/04 02:32:42;;;;;;;1.45;0.70;;;18.90;77.30;;;;;;5101703;27;45247;-69
2022/07/04 02:35:09;;;;;;;7.32;1.10;;;18.90;77.30;;;;;;5100942;27;45476;-69
2022/07/04 02:37:36;;;;;;;1.95;0.90;;;18.90;77.30;;;;;;5099071;27;45419;-69
2022/07/04 02:40:04;;;;;;;3.72;1.00;;;18.90;77.30;;;;;;5098126;27;46585;-69
2022/07/04 02:42:32;;;;;;;1.73;0.70;;;18.90;77.30;;;;;;5093584;27;45525;-69
2022/07/04 02:45:00;;;;;;;2.25;0.90;;;18.90;77.30;;;;;;5097663;27;45389;-69
2022/07/04 02:47:26;;;;;;;2.63;1.17;;;18.90;77.70;;;;;;5098910;27;45396;-69
2022/07/04 02:49:53;;;;;;;2.00;0.70;;;18.90;77.30;;;;;;5100756;27;46376;-69
2022/07/04 02:52:20;;;;;;;1.05;0.70;;;18.90;77.30;;;;;;5100589;27;45387;-69
2022/07/04 02:54:48;;;;;;;4.93;1.20;;;18.80;77.70;;;;;;5099382;27;45259;-68
2022/07/04 02:57:15;;;;;;;1.48;0.60;;;18.80;77.80;;;;;;5102484;27;45405;-69
2022/07/04 02:59:43;;;;;;;2.65;0.70;;;18.80;77.70;;;;;;5097934;27;47499;-69
2022/07/04 03:02:10;;;;;;;1.75;0.82;;;18.80;77.50;;;;;;5101157;27;45551;-69
2022/07/04 03:04:39;;;;;;;2.47;1.10;;;18.80;77.20;;;;;;5099251;27;45757;-67
2022/07/04 03:07:06;;;;;;;2.33;0.80;;;18.80;77.70;;;;;;5101096;27;45615;-68
2022/07/04 03:09:33;;;;;;;1.40;0.90;;;18.70;77.80;;;;;;5101794;27;46602;-69
2022/07/04 03:12:00;;;;;;;5.88;0.90;;;18.60;77.70;;;;;;5101682;27;45326;-69
2022/07/04 03:14:26;;;;;;;2.45;0.88;;;18.40;78.50;;;;;;5099791;27;45431;-69
2022/07/04 03:16:55;;;;;;;2.38;0.80;;;18.30;79.40;;;;;;5092754;27;45709;-69
2022/07/04 03:19:21;;;;;;;3.53;0.98;;;18.20;79.60;;;;;;5100942;27;46282;-69
2022/07/04 03:21:48;;;;;;;3.70;0.90;;;18.20;79.80;;;;;;5100243;27;45858;-69
2022/07/04 03:24:15;;;;;;;2.35;0.80;;;18.20;81.10;;;;;;5101808;27;45266;-69
2022/07/04 03:26:41;;;;;;;3.78;1.42;;;18.10;80.60;;;;;;5100605;27;45335;-69
2022/07/04 03:29:08;;;;;;;4.55;0.82;;;18.20;80.70;;;;;;5091188;27;48283;-69
2022/07/04 03:31:35;;;;;;;3.28;0.88;;;18.20;80.90;;;;;;5099123;27;45590;-69
2022/07/04 03:34:03;;;;;;;4.40;0.80;;;18.20;80.80;;;;;;5100194;27;45453;-68
2022/07/04 03:36:30;;;;;;;6.30;0.90;;;18.20;81.00;;;;;;5101459;27;45346;-68
2022/07/04 03:38:57;;;;;;;3.03;0.82;;;18.20;81.40;;;;;;5101573;27;46274;-68
2022/07/04 03:41:24;;;;;;;2.17;1.15;;;18.30;81.20;;;;;;5100786;27;45274;-69
2022/07/04 03:43:50;;;;;;;2.35;1.05;;;18.30;81.00;;;;;;5102721;27;45285;-69
2022/07/04 03:46:17;;;;;;;6.00;1.00;;;18.30;81.00;;;;;;5099263;27;45379;-69
2022/07/04 03:48:44;;;;;;;6.75;1.23;;;18.20;81.00;;;;;;5097830;27;47084;-69
2022/07/04 03:51:13;;;;;;;4.18;1.00;;;18.20;81.70;;;;;;5100435;27;45490;-68
2022/07/04 03:53:40;;;;;;;5.60;1.00;;;18.20;81.30;;;;;;5101042;27;45458;-68
2022/07/04 03:56:08;;;;;;;6.22;1.13;;;18.20;81.70;;;;;;5098498;27;45398;-67
2022/07/04 03:58:34;;;;;;;4.88;1.23;;;18.20;81.40;;;;;;5099636;27;47499;-69
2022/07/04 04:01:01;;;;;;;7.72;1.00;;;18.20;81.50;;;;;;5096804;27;45342;-69
2022/07/04 04:06:14;;;;;;;7.47;1.30;;;18.10;82.10;;;;;;5097633;27;45351;-69
2022/07/04 04:08:40;;;;;;;4.97;1.20;;;18.20;81.50;;;;;;5105552;27;48298;-69
2022/07/04 04:11:07;;;;;;;4.50;1.08;;;18.10;81.60;;;;;;5103444;27;45464;-69
2022/07/04 04:13:34;;;;;;;6.30;1.25;;;18.10;82.10;;;;;;5105663;27;45500;-69
2022/07/04 04:16:01;;;;;;;7.80;1.40;;;18.10;81.90;;;;;;5100654;27;45400;-68
2022/07/04 04:18:28;;;;;;;5.35;1.30;;;18.20;81.90;;;;;;5102780;27;48350;-69
2022/07/04 04:20:55;;;;;;;6.53;1.48;;;18.20;82.00;;;;;;5102602;27;45271;-69
2022/07/04 04:23:23;;;;;;;2.67;1.20;;;18.20;82.20;;;;;;5104184;27;45465;-68
2022/07/04 04:25:50;;;;;;;6.40;1.33;;;18.20;82.40;;;;;;5095589;27;45248;-69
2022/07/04 04:28:16;;;;;;;5.80;1.13;;;18.20;82.70;;;;;;5105421;27;46200;-68
2022/07/04 04:30:43;;;;;;;5.28;1.17;;;18.20;82.50;;;;;;5105658;27;45246;-69
2022/07/04 04:33:10;;;;;;;5.30;1.58;;;18.20;82.40;;;;;;5105216;27;45297;-69
2022/07/04 04:35:37;;;;;;;6.20;1.20;;;18.20;82.10;;;;;;5105395;27;45548;-69
2022/07/04 04:38:04;;;;;;;5.63;1.23;;;18.20;82.20;;;;;;5104304;27;47115;-69
2022/07/04 04:40:32;;;;;;;10.68;1.40;;;18.30;82.40;;;;;;5104393;27;45466;-69
2022/07/04 04:42:58;;;;;;;5.60;1.40;;;18.30;82.80;;;;;;5104897;27;45460;-69
2022/07/04 04:45:25;;;;;;;7.13;1.30;;;18.30;82.80;;;;;;5105077;27;45527;-69
2022/07/04 04:47:53;;;;;;;11.90;1.60;;;18.30;83.10;;;;;;5104898;27;46593;-69
2022/07/04 04:50:20;;;;;;;5.00;1.38;;;18.30;83.30;;;;;;5104141;27;45384;-69
2022/07/04 04:52:46;;;;;;;4.35;1.17;;;18.30;83.60;;;;;;5104617;27;45322;-69
2022/07/04 04:55:13;;;;;;;12.23;1.30;;;18.30;83.30;;;;;;5104077;27;45408;-69
2022/07/04 04:57:41;;;;;;;7.57;1.45;;;18.40;83.80;;;;;;5104705;27;47442;-69
2022/07/04 05:00:09;;;;;;;5.80;1.25;;;18.40;85.70;;;;;;5102998;27;45365;-69
2022/07/04 05:02:37;;;;;;;4.20;1.30;;;18.50;84.80;;;;;;5105005;27;45444;-68
2022/07/04 05:05:04;;;;;;;5.07;1.13;;;18.50;84.80;;;;;;5104054;27;45327;-68
2022/07/04 05:07:31;;;;;;;5.80;1.60;;;18.60;84.90;;;;;;5104122;27;46062;-69
2022/07/04 05:09:59;;;;;;;4.25;1.35;;;18.60;84.90;;;;;;5103843;27;45408;-69
2022/07/04 05:12:25;;;;;;;3.83;1.40;;;18.60;84.60;;;;;;5103427;27;45420;-69
2022/07/04 05:14:54;;;;;;;7.75;1.40;;;18.70;85.00;;;;;;5103391;27;45267;-69
2022/07/04 05:17:21;;;;;;;5.40;1.00;;;18.70;85.00;;;;;;5105067;27;48303;-68
2022/07/04 05:19:48;;;;;;;5.88;1.33;;;18.70;84.90;;;;;;5101693;27;45481;-68
2022/07/04 05:22:15;;;;;;;7.75;1.25;;;18.70;83.80;;;;;;5099034;27;45357;-69
2022/07/04 05:24:42;;;;;;;5.00;1.17;;;18.70;84.20;;;;;;5098427;27;45517;-69
2022/07/04 05:27:09;;;;;;;4.00;1.20;;;18.80;84.40;;;;;;5096407;27;46068;-69
2022/07/04 05:29:36;;;;;;;5.93;1.30;;;18.80;84.10;;;;;;5103349;27;45264;-69
2022/07/04 05:32:05;;;;;;;7.70;1.30;;;18.80;85.70;;;;;;5098993;27;45439;-69
2022/07/04 05:34:32;;;;;;;4.25;1.10;;;18.80;84.70;;;;;;5099181;27;45259;-69
2022/07/04 05:36:59;;;;;;;5.38;1.50;;;18.90;85.10;;;;;;5102164;27;47101;-68
2022/07/04 05:39:25;;;;;;;4.45;1.17;;;18.90;84.70;;;;;;5102679;27;45277;-69
2022/07/04 05:41:52;;;;;;;4.63;1.00;;;18.90;84.60;;;;;;5104739;27;45290;-68
2022/07/04 05:44:19;;;;;;;4.55;1.00;;;19.20;84.00;;;;;;5094452;27;45304;-69
2022/07/04 05:46:46;;;;;;;1.50;0.93;;;19.30;82.20;;;;;;5100561;27;46432;-69
2022/07/04 05:49:14;;;;;;;2.60;1.05;;;19.40;82.10;;;;;;5101879;27;45718;-69
2022/07/04 05:51:41;;;;;;;2.97;0.82;;;19.40;82.90;;;;;;5099533;27;45488;-69
2022/07/04 05:54:07;;;;;;;2.53;0.85;;;19.50;82.20;;;;;;5098899;27;45711;-69
2022/07/04 05:56:34;;;;;;;5.55;1.05;;;19.60;82.00;;;;;;5101580;27;45437;-69
2022/07/04 05:59:01;;;;;;;3.80;1.02;;;19.60;82.60;;;;;;5102231;27;45596;-68
2022/07/04 06:01:28;;;;;;;7.22;1.50;;;19.70;81.90;;;;;;5095840;27;45445;-69
2022/07/04 06:03:55;;;;;;;1.75;0.90;;;19.70;81.20;;;;;;5100720;27;45314;-69
2022/07/04 06:06:23;;;;;;;5.07;1.02;;;19.70;81.20;;;;;;5099452;27;48022;-68
2022/07/04 06:08:50;;;;;;;7.32;1.08;;;19.80;80.90;;;;;;5101079;27;45318;-69
2022/07/04 06:11:17;;;;;;;2.67;0.93;;;19.80;80.40;;;;;;5100027;27;45429;-69
2022/07/04 06:13:44;;;;;;;4.18;1.08;;;19.70;78.10;;;;;;5097813;27;45317;-69
2022/07/04 06:16:11;;;;;;;5.78;1.02;;;19.70;79.70;;;;;;5102555;27;47001;-69
2022/07/04 06:18:38;;;;;;;4.65;1.10;;;19.70;79.60;;;;;;5094464;27;45348;-68
2022/07/04 06:21:05;;;;;;;7.63;1.27;;;19.80;79.60;;;;;;5098737;27;45476;-69
2022/07/04 06:23:33;;;;;;;3.13;1.13;;;19.70;79.30;;;;;;5101763;27;45504;-69
2022/07/04 06:26:00;;;;;;;4.47;1.00;;;19.80;79.50;;;;;;5099418;27;48317;-69
2022/07/04 06:28:26;;;;;;;6.70;0.88;;;19.70;79.10;;;;;;5098155;27;45339;-68
2022/07/04 06:30:53;;;;;;;5.57;1.17;;;19.60;79.10;;;;;;5092584;27;45392;-69
2022/07/04 06:33:20;;;;;;;7.88;1.58;;;19.70;79.70;;;;;;5100483;27;45756;-69
2022/07/04 06:35:48;;;;;;;4.25;1.00;;;19.70;79.00;;;;;;5100110;27;45669;-69
2022/07/04 06:38:17;;;;;;;3.90;0.75;;;19.70;79.20;;;;;;5089332;27;45488;-68
2022/07/04 06:40:46;;;;;;;2.00;0.73;;;19.90;79.30;;;;;;5084775;27;45540;-69
2022/07/04 06:43:13;;;;;;;4.40;0.70;;;20.00;78.30;;;;;;5097737;27;45404;-69
2022/07/04 06:45:40;;;;;;;2.60;0.68;;;20.10;79.10;;;;;;5093960;27;47258;-68
2022/07/04 06:48:07;;;;;;;2.10;0.70;;;20.20;76.50;;;;;;5091067;27;46366;-69
2022/07/04 06:50:34;;;;;;;4.80;0.95;;;20.10;76.80;;;;;;5089484;27;45567;-68
2022/07/04 06:53:03;;;;;;;1.27;0.70;;;20.00;77.40;;;;;;5099186;27;45390;-68
2022/07/04 06:55:30;;;;;;;2.97;0.80;;;20.10;77.20;;;;;;5104654;27;46558;-68
2022/07/04 06:57:59;;;;;;;4.88;0.60;;;20.10;76.00;;;;;;5102827;27;45228;-69
2022/07/04 07:00:26;;;;;;;3.30;0.60;;;20.20;77.30;;;;;;5103107;27;45409;-69
2022/07/04 07:02:53;;;;;;;1.70;0.63;;;20.20;76.30;;;;;;5102786;27;45317;-68
2022/07/04 07:05:19;;;;;;;3.88;0.70;;;20.20;76.40;;;;;;5102186;27;48547;-68
2022/07/04 07:07:46;;;;;;;3.90;0.65;;;20.20;76.20;;;;;;5102863;27;45415;-68
2022/07/04 07:10:13;;;;;;;4.82;1.02;;;20.30;76.40;;;;;;5101936;27;45318;-68
2022/07/04 07:12:39;;;;;;;1.45;0.52;;;20.30;76.30;;;;;;5103094;27;45401;-68
2022/07/04 07:15:08;;;;;;;5.35;0.50;;;20.40;76.00;;;;;;5102938;27;45454;-68
2022/07/04 07:17:36;;;;;;;4.18;0.60;;;20.40;76.30;;;;;;5102508;27;45468;-68
2022/07/04 07:20:03;;;;;;;2.78;0.73;;;20.40;76.60;;;;;;5101092;27;45421;-68
2022/07/04 07:22:29;;;;;;;6.93;0.70;;;20.50;76.10;;;;;;5100180;27;45784;-68
2022/07/04 07:24:57;;;;;;;2.85;0.70;;;20.50;76.20;;;;;;5086628;27;45471;-68
2022/07/04 07:27:23;;;;;;;4.40;0.77;;;20.50;75.50;;;;;;5095844;27;45479;-68
2022/07/04 07:29:50;;;;;;;1.15;0.47;;;20.50;75.90;;;;;;5098454;27;45477;-69
2022/07/04 07:32:18;;;;;;;1.50;0.60;;;20.50;75.30;;;;;;5097705;27;45413;-69
2022/07/04 07:34:45;;;;;;;2.05;0.43;;;20.50;75.10;;;;;;5096596;27;47123;-68
2022/07/04 07:37:12;;;;;;;4.13;0.75;;;20.50;76.10;;;;;;5102966;27;45428;-68
2022/07/04 07:39:38;;;;;;;12.75;0.98;;;20.40;74.50;;;;;;5098640;27;45452;-68
2022/07/04 07:42:06;;;;;;;1.60;0.57;;;20.30;73.90;;;;;;5096971;27;45544;-68
2022/07/04 07:44:32;;;;;;;3.00;0.77;;;20.20;73.10;;;;;;5096677;27;46242;-69
2022/07/04 07:46:59;;;;;;;2.15;0.50;;;20.30;73.60;;;;;;5101238;27;45447;-69
2022/07/04 07:49:27;;;;;;;4.40;0.60;;;20.20;73.30;;;;;;5102855;27;45512;-68
2022/07/04 07:51:55;;;;;;;2.20;0.43;;;20.20;72.50;;;;;;5099509;27;45601;-68
2022/07/04 07:54:22;;;;;;;4.13;0.80;;;20.20;73.20;;;;;;5096248;27;49012;-68
2022/07/04 07:56:48;;;;;;;1.13;0.55;;;20.10;73.00;;;;;;5101930;27;45358;-68
2022/07/04 07:59:15;;;;;;;4.05;0.52;;;20.30;74.80;;;;;;5099690;27;45559;-68
2022/07/04 08:01:42;;;;;;;9.30;1.08;;;20.50;74.20;;;;;;5100744;27;45493;-69
2022/07/04 08:06:55;;;;;;;9.77;1.02;;;20.50;73.70;;;;;;5093277;27;45443;-68
2022/07/04 08:09:21;;;;;;;7.70;0.88;;;20.50;74.80;;;;;;5102046;27;45339;-67
2022/07/04 08:11:48;;;;;;;3.40;0.80;;;20.40;72.80;;;;;;5101810;27;45459;-67
2022/07/04 08:14:15;;;;;;;3.20;0.60;;;20.30;73.60;;;;;;5104065;27;46596;-68
2022/07/04 08:16:42;;;;;;;1.90;0.57;;;20.20;73.80;;;;;;5104374;27;45404;-67
2022/07/04 08:19:09;;;;;;;2.05;0.63;;;20.20;74.80;;;;;;5104994;27;45394;-68
2022/07/04 08:21:35;;;;;;;1.70;0.60;;;20.10;73.20;;;;;;5103643;27;45437;-67
2022/07/04 08:24:04;;;;;;;1.58;0.63;;;20.10;73.80;;;;;;5100571;27;48072;-68
2022/07/04 08:26:31;;;;;;;4.32;0.68;;;19.40;73.50;;;;;;5099452;27;45549;-67
2022/07/04 08:28:59;;;;;;;2.05;0.70;;;19.30;75.60;;;;;;5103802;27;45434;-68
2022/07/04 08:31:26;;;;;;;3.55;0.60;;;19.80;74.90;;;;;;5103296;27;45396;-68
2022/07/04 08:33:53;;;;;;;4.00;0.60;;;20.20;73.50;;;;;;5101645;27;45275;-67
2022/07/04 08:36:20;;;;;;;1.67;0.50;;;20.30;72.90;;;;;;5104953;27;45731;-68
2022/07/04 08:38:47;;;;;;;2.55;0.90;;;20.40;73.20;;;;;;5104456;27;45332;-68
2022/07/04 08:41:16;;;;;;;2.35;0.55;;;20.50;72.40;;;;;;5105148;27;45344;-68
2022/07/04 08:43:43;;;;;;;2.42;0.45;;;20.40;71.70;;;;;;5105039;27;46700;-68
2022/07/04 08:46:11;;;;;;;4.30;0.82;;;20.50;73.30;;;;;;5105112;27;45480;-68
2022/07/04 08:48:39;;;;;;;2.25;0.50;;;20.60;74.50;;;;;;5105110;27;45375;-68
2022/07/04 08:51:15;;;;;;;4.57;0.52;;;20.70;71.60;;;;;;5104498;27;45202;-67
2022/07/04 08:53:50;;;;;;;4.35;0.52;;;20.70;71.70;;;;;;5105123;27;46281;-67
2022/07/04 08:59:05;;;;;;;4.13;0.70;;;20.60;70.80;;;;;;5102844;27;45945;-67
2022/07/04 09:01:32;;;;;;;4.68;0.93;;;20.60;69.10;;;;;;5101503;27;45415;-67
2022/07/04 09:04:00;;;;;;;3.95;0.70;;;20.30;73.10;;;;;;5106369;27;47632;-67
2022/07/04 09:06:29;;;;;;;4.25;0.70;;;20.30;71.80;;;;;;5104869;27;45571;-68
2022/07/04 09:08:56;;;;;;;5.43;0.73;;;20.20;69.60;;;;;;5104046;27;45426;-67
2022/07/04 09:11:24;;;;;;;2.20;0.40;;;20.20;70.60;;;;;;5104199;27;45351;-68
2022/07/04 09:13:51;;;;;;;2.25;0.57;;;20.20;68.80;;;;;;5103614;27;45464;-67
2022/07/04 09:16:18;;;;;;;3.55;1.02;;;20.30;68.00;;;;;;5094236;27;46212;-68
2022/07/04 09:18:44;;;;;;;2.15;0.70;;;20.50;68.60;;;;;;5089978;27;45394;-68
2022/07/04 09:21:11;;;;;;;2.03;0.70;;;20.70;66.30;;;;;;5094525;27;45529;-68
2022/07/04 09:23:41;;;;;;;2.72;0.80;;;20.50;69.20;;;;;;5102349;27;46601;-68
2022/07/04 09:26:11;;;;;;;3.53;0.90;;;20.50;68.80;;;;;;5120680;27;45422;-68
2022/07/04 09:28:40;;;;;;;2.30;0.65;;;20.30;70.00;;;;;;5113346;27;45405;-68
2022/07/04 09:31:18;;;;;;;1.75;0.52;;;20.20;67.50;;;;;;5096909;27;45420;-68
2022/07/04 09:33:51;;;;;;;2.85;0.60;;;20.30;65.90;;;;;;5104008;27;45474;-68
2022/07/04 09:36:20;;;;;;;1.90;0.70;;;20.40;66.70;;;;;;5104353;27;45262;-68
2022/07/04 09:39:04;;;;;;;3.58;0.90;;;20.30;66.30;;;;;;5103860;27;45426;-68
2022/07/04 09:41:34;;;;;;;3.60;0.77;;;20.40;67.10;;;;;;5102728;27;45634;-68
2022/07/04 09:44:06;;;;;;;5.45;0.90;;;20.40;69.50;;;;;;5098409;27;46595;-68
2022/07/04 09:46:34;;;;;;;2.42;0.70;;;20.50;67.20;;;;;;5098951;27;45416;-68
2022/07/04 09:49:01;;;;;;;4.15;0.80;;;20.50;67.00;;;;;;5095535;27;45323;-68
2022/07/04 09:51:40;;;;;;;2.47;0.52;;;20.60;66.90;;;;;;5089588;27;45401;-68
2022/07/04 09:54:15;;;;;;;6.43;0.90;;;20.60;63.70;;;;;;5092470;27;45585;-68
2022/07/04 09:56:42;;;;;;;5.28;0.70;;;20.70;65.10;;;;;;5095332;27;45273;-69
2022/07/04 09:59:11;;;;;;;4.30;0.75;;;20.60;66.10;;;;;;5096694;27;45387;-69
2022/07/04 10:01:39;;;;;;;4.07;0.80;;;20.60;66.10;;;;;;5100502;27;45499;-68
2022/07/04 10:04:06;;;;;;;4.25;0.90;;;20.50;66.70;;;;;;5100578;27;45451;-69
2022/07/04 10:06:33;;;;;;;4.10;0.90;;;20.40;67.10;;;;;;5099877;27;46106;-68
2022/07/04 10:09:09;;;;;;;4.07;1.08;;;20.40;66.80;;;;;;5097319;27;45573;-68
2022/07/04 10:11:38;;;;;;;2.65;0.90;;;20.20;66.90;;;;;;5095743;27;45327;-68
2022/07/04 10:14:06;;;;;;;2.78;0.70;;;20.50;66.10;;;;;;5097792;27;46329;-69
2022/07/04 10:16:35;;;;;;;2.47;0.90;;;20.80;66.40;;;;;;5096392;27;45531;-69
2022/07/04 10:19:02;;;;;;;6.90;1.25;;;21.00;65.40;;;;;;5094889;27;45477;-70
2022/07/04 10:21:29;;;;;;;2.28;0.80;;;20.90;64.20;;;;;;5096096;27;45397;-69
2022/07/04 10:23:56;;;;;;;4.50;0.90;;;20.90;65.90;;;;;;5093220;27;45396;-68
2022/07/04 10:26:24;;;;;;;4.47;0.93;;;20.90;66.00;;;;;;5097268;27;45447;-68
2022/07/04 10:28:52;;;;;;;3.05;0.90;;;20.80;65.70;;;;;;5095754;27;45403;-68
2022/07/04 10:31:20;;;;;;;3.90;1.10;;;20.70;64.60;;;;;;5093667;27;45564;-68
2022/07/04 10:33:48;;;;;;;2.30;0.70;;;20.80;64.00;;;;;;5097365;27;47797;-68
2022/07/04 10:36:17;;;;;;;2.17;0.52;;;21.00;63.10;;;;;;5093529;27;45345;-68
2022/07/04 10:38:48;;;;;;;4.07;0.75;;;21.00;63.00;;;;;;5092684;27;45277;-69
2022/07/04 10:41:15;;;;;;;2.70;0.73;;;21.00;63.80;;;;;;5098158;27;45477;-69
2022/07/04 10:44:02;;;;;;;3.05;0.73;;;21.00;63.60;;;;;;5094164;27;46454;-68
2022/07/04 10:46:46;;;;;;;2.45;0.70;;;21.20;63.80;;;;;;5099250;27;45385;-68
2022/07/04 10:49:23;;;;;;;5.07;0.90;;;21.30;63.00;;;;;;5093547;27;45336;-69
2022/07/04 10:51:51;;;;;;;3.70;0.50;;;21.40;62.90;;;;;;5101017;27;45262;-68
2022/07/04 10:54:20;;;;;;;4.68;0.75;;;21.20;61.60;;;;;;5088403;27;47951;-68
2022/07/04 10:56:52;;;;;;;3.90;0.65;;;21.30;59.80;;;;;;5095473;27;45320;-69
2022/07/04 10:59:25;;;;;;;2.63;0.63;;;21.20;60.00;;;;;;5087899;27;45521;-69
2022/07/04 11:02:16;;;;;;;4.22;0.80;;;21.00;62.20;;;;;;5091235;27;45545;-69
2022/07/04 11:04:53;;;;;;;1.17;0.60;;;21.20;58.80;;;;;;5097350;27;46636;-69
2022/07/04 11:07:21;;;;;;;3.83;0.55;;;21.30;62.00;;;;;;5101289;27;45247;-68
2022/07/04 11:10:25;;;;;;;2.45;0.73;;;21.40;63.10;;;;;;5094139;27;45457;-69
2022/07/04 11:13:20;;;;;;;4.43;0.85;;;21.60;62.20;;;;;;5104476;27;45330;-69
2022/07/04 11:15:59;;;;;;;2.58;0.77;;;21.60;61.10;;;;;;5105410;27;47110;-69
2022/07/04 11:18:28;;;;;;;2.80;0.70;;;21.70;57.00;;;;;;5104576;27;45278;-69
2022/07/04 11:20:56;;;;;;;3.05;1.02;;;21.40;60.00;;;;;;5104579;27;45429;-69
2022/07/04 11:23:24;;;;;;;4.32;1.15;;;21.50;60.80;;;;;;5099913;27;45400;-69
2022/07/04 11:25:54;;;;;;;5.95;1.17;;;21.50;60.40;;;;;;5100498;27;46616;-69
2022/07/04 11:28:22;;;;;;;2.47;1.10;;;21.70;62.10;;;;;;5102919;27;45263;-69
2022/07/04 11:30:52;;;;;;;2.38;1.10;;;21.60;61.50;;;;;;5103627;27;45473;-69
2022/07/04 11:33:20;;;;;;;2.95;1.00;;;21.60;62.10;;;;;;5103070;27;45516;-69
2022/07/04 11:38:49;;;;;;;8.30;1.00;;;21.70;60.30;;;;;;5161377;27;45566;-67
2022/07/04 11:46:49;;;;;;;10.30;1.00;;;21.90;58.50;;;;;;5160512;27;45366;-68
2022/07/04 11:49:16;;;;;;;3.38;0.60;;;21.90;59.60;;;;;;5158880;27;47281;-68
2022/07/04 11:51:44;;;;;;;13.40;1.15;;;21.90;60.80;;;;;;5156308;27;45325;-67
2022/07/04 11:54:12;;;;;;;4.45;0.63;;;21.90;60.60;;;;;;5154498;27;45372;-67
2022/07/04 11:56:39;;;;;;;4.40;0.80;;;21.90;59.60;;;;;;5151025;27;45632;-66
2022/07/04 11:59:13;;;;;;;3.25;0.88;;;21.90;57.80;;;;;;5157993;27;45586;-67
2022/07/04 12:01:41;;;;;;;3.38;0.90;;;22.00;57.10;;;;;;5153151;27;45433;-67
2022/07/04 12:04:16;;;;;;;5.50;0.70;;;22.10;58.60;;;;;;5147871;27;45394;-66
2022/07/04 12:06:43;;;;;;;3.63;0.90;;;22.10;61.80;;;;;;5156482;27;45375;-67
2022/07/04 12:09:10;;;;;;;1.83;0.60;;;22.10;61.40;;;;;;5156148;27;45474;-66
2022/07/04 12:11:58;;;;;;;3.00;0.75;;;22.10;60.50;;;;;;5159765;27;45754;-67
2022/07/04 12:14:26;;;;;;;3.88;0.68;;;22.20;65.60;;;;;;5159303;27;45457;-66
2022/07/04 12:17:11;;;;;;;5.78;0.73;;;22.30;57.20;;;;;;5161051;27;45566;-66
2022/07/04 12:19:38;;;;;;;2.47;0.65;;;22.30;59.60;;;;;;5160871;27;48000;-66
2022/07/04 12:22:05;;;;;;;2.35;0.70;;;22.40;58.10;;;;;;5161520;27;45455;-65
2022/07/04 12:24:41;;;;;;;4.72;0.90;;;22.40;59.60;;;;;;5158237;27;45339;-66
2022/07/04 12:27:17;;;;;;;9.75;0.60;;;22.50;64.10;;;;;;5140943;27;45293;-65
2022/07/04 12:29:47;;;;;;;2.78;0.55;;;22.60;65.70;;;;;;5151906;27;47329;-66
2022/07/04 12:32:14;;;;;;;2.30;0.70;;;22.80;61.90;;;;;;5161965;27;45432;-65
2022/07/04 12:34:41;;;;;;;2.67;0.73;;;22.80;57.90;;;;;;5160925;27;45594;-66
2022/07/04 12:37:10;;;;;;;3.00;0.90;;;22.90;54.70;;;;;;5161496;27;45294;-64
2022/07/04 12:39:39;;;;;;;14.63;1.00;;;22.90;56.60;;;;;;5160149;27;46924;-66
2022/07/04 12:42:12;;;;;;;3.75;0.70;;;22.90;61.30;;;;;;5152281;27;45389;-65
2022/07/04 12:44:40;;;;;;;5.50;0.65;;;23.00;60.70;;;;;;5148440;27;45263;-66
2022/07/04 12:47:08;;;;;;;2.83;0.80;;;23.00;64.80;;;;;;5161680;27;45307;-66
2022/07/04 12:49:35;;;;;;;3.35;0.70;;;22.90;62.40;;;;;;5149598;27;45479;-65
2022/07/04 12:52:06;;;;;;;3.25;0.80;;;23.00;59.60;;;;;;5146921;27;45503;-66
2022/07/04 12:54:33;;;;;;;5.65;1.10;;;23.00;56.80;;;;;;5147129;27;45430;-66
2022/07/04 12:57:13;;;;;;;3.28;0.82;;;22.90;60.30;;;;;;5146975;27;45333;-65
2022/07/04 12:59:40;;;;;;;3.40;0.88;;;23.00;61.50;;;;;;5126745;27;47150;-66
2022/07/04 13:02:08;;;;;;;1.95;0.60;;;23.00;57.70;;;;;;5142862;27;45392;-66
2022/07/04 13:04:36;;;;;;;1.20;0.70;;;23.00;62.60;;;;;;5146413;27;45228;-66
2022/07/04 13:07:14;;;;;;;2.33;0.60;;;23.00;57.20;;;;;;5147334;27;45386;-66
2022/07/04 13:09:42;;;;;;;2.13;0.68;;;22.90;57.50;;;;;;5145618;27;45421;-66
2022/07/04 13:12:27;;;;;;;2.88;0.90;;;22.70;62.70;;;;;;5152431;27;45346;-66